Time;durP1;ratioP1;P1;durP2;ratioP2;P2;SDS_P1;SDS_P2;PMS_P1;PMS_P2;Temp;Humidity;BMP_temperature;BMP_pressure;BME280_temperature;BME280_humidity;BME280_pressure;Samples;Min_cycle;Max_cycle;Signal;HPM_P1;HPM_P2
2022/03/22 00:00:19;;;;;;;;;53.67;42.33;;;;;11.44;62.88;102617.94;5076819;27;45339;-70
2022/03/22 00:02:45;;;;;;;;;51.33;40.67;;;;;11.35;62.13;102602.94;5080550;27;45471;-70
2022/03/22 00:05:10;;;;;;;;;49.33;38.67;;;;;11.40;62.53;102618.78;5080663;28;45395;-70
2022/03/22 00:07:36;;;;;;;;;52.00;41.67;;;;;11.28;63.14;102607.34;5080156;27;46062;-71
2022/03/22 00:10:02;;;;;;;;;50.33;38.33;;;;;11.32;63.11;102616.13;5080628;28;45388;-70
2022/03/22 00:12:28;;;;;;;;;50.00;41.33;;;;;11.28;63.37;102617.88;5080158;27;45386;-70
2022/03/22 00:14:54;;;;;;;;;49.67;39.00;;;;;11.27;63.59;102616.13;5060054;28;45426;-70
2022/03/22 00:17:21;;;;;;;;;50.00;39.33;;;;;11.22;63.63;102612.56;5064057;28;46155;-70
2022/03/22 00:19:47;;;;;;;;;53.00;40.33;;;;;11.24;63.60;102621.38;5080355;27;45456;-71
2022/03/22 00:22:13;;;;;;;;;47.67;38.67;;;;;11.24;63.52;102624.00;5079938;27;45414;-71
2022/03/22 00:24:39;;;;;;;;;54.67;41.00;;;;;11.13;63.84;102609.88;5080521;27;45533;-70
2022/03/22 00:27:04;;;;;;;;;52.33;41.00;;;;;10.95;63.73;102579.94;5078728;27;45746;-70
2022/03/22 00:29:29;;;;;;;;;50.00;37.33;;;;;11.05;63.71;102598.41;5079742;28;45393;-70
2022/03/22 00:31:56;;;;;;;;;49.67;38.33;;;;;11.11;64.03;102615.16;5079234;27;45473;-70
2022/03/22 00:34:23;;;;;;;;;50.67;41.00;;;;;11.10;64.11;102616.03;5080401;27;45344;-70
2022/03/22 00:36:50;;;;;;;;;56.67;43.00;;;;;11.06;63.66;102611.59;5079446;27;46403;-70
2022/03/22 00:39:15;;;;;;;;;49.33;38.33;;;;;11.08;64.45;102622.16;5079245;27;45418;-70
2022/03/22 00:41:41;;;;;;;;;51.00;39.00;;;;;11.05;64.15;102617.78;5080180;28;45442;-70
2022/03/22 00:44:06;;;;;;;;;53.00;42.67;;;;;11.00;63.84;102616.84;5080133;27;45348;-70
2022/03/22 00:46:31;;;;;;;;;55.33;41.67;;;;;11.01;64.78;102628.25;5079297;27;45598;-70
2022/03/22 00:48:58;;;;;;;;;53.00;43.33;;;;;10.97;64.63;102619.47;5079706;28;45701;-70
2022/03/22 00:51:24;;;;;;;;;56.67;41.33;;;;;10.98;64.45;102629.16;5079574;27;45407;-70
2022/03/22 00:53:50;;;;;;;;;51.33;41.00;;;;;10.97;64.55;102635.28;5080086;27;45400;-70
2022/03/22 00:56:17;;;;;;;;;55.67;44.00;;;;;10.90;64.98;102621.16;5079291;27;46061;-70
2022/03/22 00:58:43;;;;;;;;;56.67;43.00;;;;;10.82;65.11;102616.72;5079484;27;45371;-70
2022/03/22 01:01:08;;;;;;;;;56.33;44.00;;;;;10.85;65.30;102619.38;5079461;27;45451;-70
2022/03/22 01:03:34;;;;;;;;;54.00;43.67;;;;;10.86;65.14;102621.16;5079335;27;45439;-70
2022/03/22 01:06:01;;;;;;;;;56.00;43.00;;;;;10.85;65.07;102622.00;5079465;28;45654;-70
2022/03/22 01:08:30;;;;;;;;;58.00;44.00;;;;;10.79;65.00;102613.22;5079305;27;45768;-70
2022/03/22 01:10:56;;;;;;;;;57.00;45.33;;;;;10.87;65.32;102623.78;5079355;27;45498;-70
2022/03/22 01:13:24;;;;;;;;;51.33;40.67;;;;;10.87;64.84;102620.28;5078963;27;45374;-70
2022/03/22 01:15:50;;;;;;;;;63.33;48.00;;;;;10.85;65.14;102611.47;5078730;27;46182;-70
2022/03/22 01:18:16;;;;;;;;;52.67;40.67;;;;;10.77;65.32;102601.75;5078782;27;45403;-70
2022/03/22 01:20:46;;;;;;;;;56.33;44.67;;;;;10.75;64.86;102594.75;5079065;27;45316;-70
2022/03/22 01:23:11;;;;;;;;;55.67;44.33;;;;;10.73;65.70;102604.38;5079541;27;45442;-70
2022/03/22 01:25:39;;;;;;;;;50.33;39.00;;;;;10.74;65.84;102617.56;5078853;27;46297;-70
2022/03/22 01:28:07;;;;;;;;;59.00;43.33;;;;;10.71;65.80;102608.75;5078907;27;45331;-71
2022/03/22 01:30:34;;;;;;;;;49.00;38.67;;;;;10.67;65.80;102606.97;5078581;27;45344;-70
2022/03/22 01:32:59;;;;;;;;;52.33;40.00;;;;;10.62;65.74;102606.94;5078977;27;45584;-70
2022/03/22 01:35:25;;;;;;;;;55.33;42.67;;;;;10.62;66.38;102620.13;5078533;27;46104;-70
2022/03/22 01:37:53;;;;;;;;;58.33;44.00;;;;;10.59;66.11;102617.47;5078534;27;45785;-70
2022/03/22 01:40:20;;;;;;;;;60.67;43.67;;;;;10.51;66.45;102601.59;5079355;27;45230;-70
2022/03/22 01:42:46;;;;;;;;;54.00;42.00;;;;;10.54;65.91;102606.00;5078769;27;45361;-71
2022/03/22 01:45:12;;;;;;;;;60.33;45.33;;;;;10.53;66.44;102617.41;5078675;28;46759;-70
2022/03/22 01:47:39;;;;;;;;;62.67;44.33;;;;;10.49;66.77;102613.88;5078415;27;45383;-70
2022/03/22 01:50:07;;;;;;;;;61.33;43.33;;;;;10.45;66.43;102602.41;5078827;27;45417;-70
2022/03/22 01:52:39;;;;;;;;;52.33;41.33;;;;;10.47;66.81;102612.09;5078919;27;45379;-70
2022/03/22 01:55:10;;;;;;;;;55.67;42.00;;;;;10.43;66.28;102601.53;5078518;27;46482;-70
2022/03/22 01:57:36;;;;;;;;;57.00;42.00;;;;;10.41;66.47;102598.03;5078339;27;45520;-71
2022/03/22 02:00:04;;;;;;;;;56.67;41.67;;;;;10.46;66.14;102598.06;5078988;27;45486;-70
2022/03/22 02:08:01;;;;;;;;;49.33;41.00;;;;;10.49;66.43;102597.19;5077489;28;45351;-70
2022/03/22 02:10:26;;;;;;;;;48.33;38.67;;;;;10.38;66.31;102587.47;5078141;27;45261;-70
2022/03/22 02:12:52;;;;;;;;;54.67;42.33;;;;;10.40;66.04;102588.34;5078799;27;45506;-70
2022/03/22 02:15:19;;;;;;;;;51.33;39.33;;;;;10.39;66.28;102581.31;5078159;27;45379;-70
2022/03/22 02:17:45;;;;;;;;;51.00;39.67;;;;;10.45;65.38;102599.78;5078239;27;45303;-70
2022/03/22 02:20:15;;;;;;;;;55.33;39.33;;;;;10.47;66.28;102599.81;5078237;27;45341;-70
2022/03/22 02:23:00;;;;;;;;;51.00;41.33;;;;;10.48;66.09;102593.66;5078338;27;45428;-70
2022/03/22 02:25:26;;;;;;;;;51.00;42.00;;;;;10.39;66.21;102583.06;5077457;28;45379;-70
2022/03/22 02:27:54;;;;;;;;;52.67;39.67;;;;;10.45;66.04;102596.28;5078117;27;45366;-71
2022/03/22 02:30:21;;;;;;;;;51.33;39.67;;;;;10.45;66.11;102597.16;5078072;27;45312;-70
2022/03/22 02:32:51;;;;;;;;;57.33;40.67;;;;;10.35;65.79;102584.78;5078175;27;45618;-70
2022/03/22 02:35:18;;;;;;;;;52.00;39.00;;;;;10.47;65.91;102594.56;5077745;27;45407;-70
2022/03/22 02:37:43;;;;;;;;;37.67;35.00;;;;;10.49;65.96;102594.56;5077850;27;45339;-70
2022/03/22 02:40:10;;;;;;;;;55.33;42.00;;;;;10.42;65.82;102583.97;5078086;27;45658;-70
2022/03/22 02:42:35;;;;;;;;;52.33;39.67;;;;;10.45;65.82;102597.16;5077598;27;45257;-70
2022/03/22 02:45:00;;;;;;;;;52.67;38.00;;;;;10.43;66.03;102585.72;5077495;28;46974;-70
2022/03/22 02:47:26;;;;;;;;;46.00;36.33;;;;;10.45;65.66;102596.28;5077621;28;45415;-70
2022/03/22 02:49:51;;;;;;;;;47.33;37.33;;;;;10.41;65.66;102595.38;5077826;27;45459;-70
2022/03/22 02:52:17;;;;;;;;;41.00;36.00;;;;;10.36;65.59;102583.94;5078118;27;45383;-70
2022/03/22 02:54:42;;;;;;;;;41.67;34.67;;;;;10.36;65.50;102583.06;5077735;27;46419;-70
2022/03/22 02:57:07;;;;;;;;;48.33;36.33;;;;;10.41;65.50;102591.84;5077218;27;45526;-70
2022/03/22 02:59:33;;;;;;;;;53.67;38.00;;;;;10.38;65.50;102592.75;5077962;28;46005;-70
2022/03/22 03:01:58;;;;;;;;;40.00;33.67;;;;;10.33;65.79;102585.63;5077573;27;45245;-70
2022/03/22 03:04:24;;;;;;;;;40.67;33.33;;;;;10.41;65.84;102600.66;5077456;28;47110;-70
2022/03/22 03:06:49;;;;;;;;;46.00;38.00;;;;;10.41;65.88;102602.38;5077349;27;45588;-70
2022/03/22 03:09:15;;;;;;;;;43.67;36.00;;;;;10.44;65.14;102602.41;5077438;27;45697;-70
2022/03/22 03:11:40;;;;;;;;;43.33;37.00;;;;;10.38;65.32;102597.09;5076625;28;45566;-70
2022/03/22 03:16:49;;;;;;;;;48.67;38.67;;;;;10.44;65.23;102600.69;5077021;28;45558;-70
2022/03/22 03:19:15;;;;;;;;;46.67;37.67;;;;;10.40;64.96;102590.13;5077358;27;45495;-70
2022/03/22 03:21:40;;;;;;;;;39.00;34.67;;;;;10.29;64.62;102575.03;5077390;27;45462;-70
2022/03/22 03:24:05;;;;;;;;;43.67;35.67;;;;;10.40;64.53;102595.38;5077253;27;45443;-70
2022/03/22 03:26:31;;;;;;;;;42.67;34.00;;;;;10.41;64.70;102600.66;5076781;27;45428;-70
2022/03/22 03:28:57;;;;;;;;;44.00;33.00;;;;;10.34;64.67;102590.94;5077367;28;45333;-70
2022/03/22 03:31:23;;;;;;;;;44.67;34.33;;;;;10.34;64.55;102584.78;5077439;27;45625;-70
2022/03/22 03:33:49;;;;;;;;;35.67;31.33;;;;;10.36;64.79;102589.19;5076742;27;46545;-70
2022/03/22 03:36:14;;;;;;;;;48.33;35.67;;;;;10.33;64.55;102588.25;5076782;27;45375;-70
2022/03/22 03:38:43;;;;;;;;;47.33;38.33;;;;;10.29;64.52;102582.94;5077006;28;46039;-70
2022/03/22 03:43:57;;;;;;;;;42.00;34.33;;;;;10.31;64.82;102593.53;5076878;28;45430;-70
2022/03/22 03:49:06;;;;;;;;;43.00;36.67;;;;;10.29;64.10;102596.13;5076884;28;45304;-70
2022/03/22 03:51:33;;;;;;;;;47.00;36.33;;;;;10.01;64.19;102544.13;5077082;27;45479;-70
2022/03/22 03:53:59;;;;;;;;;46.67;38.00;;;;;10.22;64.09;102580.25;5077022;27;46517;-70
2022/03/22 03:56:25;;;;;;;;;46.67;36.00;;;;;9.99;64.13;102549.38;5076337;27;45635;-70
2022/03/22 03:58:51;;;;;;;;;44.67;35.00;;;;;10.24;64.34;102594.34;5076953;27;45390;-70
2022/03/22 04:01:16;;;;;;;;;42.33;34.33;;;;;10.20;64.00;102587.28;5077119;27;45379;-70
2022/03/22 04:03:41;;;;;;;;;47.00;36.33;;;;;10.09;64.16;102585.44;5076462;27;45557;-70
2022/03/22 04:06:07;;;;;;;;;45.33;36.33;;;;;10.19;63.30;102596.91;5076866;27;45467;-70
2022/03/22 04:08:32;;;;;;;;;44.00;37.33;;;;;10.20;63.62;102597.81;5076886;27;45348;-70
2022/03/22 04:10:57;;;;;;;;;42.00;33.00;;;;;9.90;63.36;102552.81;5077099;27;45371;-70
2022/03/22 04:13:23;;;;;;;;;42.67;35.00;;;;;10.11;63.91;102603.88;5076503;27;46312;-70
2022/03/22 04:15:48;;;;;;;;;41.67;34.33;;;;;10.01;63.66;102597.63;5076785;27;45518;-70
2022/03/22 04:18:14;;;;;;;;;38.33;33.33;;;;;10.09;63.38;102616.13;5077029;27;45299;-70
2022/03/22 04:20:40;;;;;;;;;41.33;33.00;;;;;10.04;63.46;102605.56;5075838;27;45625;-70
2022/03/22 04:23:05;;;;;;;;;38.33;32.33;;;;;10.05;63.29;102615.22;5076437;27;46172;-70
2022/03/22 04:25:30;;;;;;;;;37.33;35.00;;;;;9.91;63.57;102596.66;5076234;27;45436;-70
2022/03/22 04:33:25;;;;;;;;;43.33;32.67;;;;;9.92;63.22;102618.59;5076316;28;45566;-70
2022/03/22 04:35:50;;;;;;;;;38.33;31.00;;;;;9.87;63.27;102615.03;5075616;27;45581;-70
2022/03/22 04:38:16;;;;;;;;;41.67;35.33;;;;;9.86;63.31;102624.69;5076406;28;45369;-70
2022/03/22 04:40:41;;;;;;;;;44.67;33.33;;;;;9.78;63.34;102609.69;5076860;27;45369;-70
2022/03/22 04:43:07;;;;;;;;;43.33;35.67;;;;;9.85;63.13;102624.66;5076136;27;46210;-70
2022/03/22 04:45:32;;;;;;;;;37.67;31.67;;;;;9.84;63.36;102621.13;5076269;27;45493;-70
2022/03/22 04:47:58;;;;;;;;;34.00;30.00;;;;;9.83;63.62;102631.66;5078464;27;45431;-70
2022/03/22 04:50:23;;;;;;;;;39.67;30.00;;;;;9.81;63.60;102628.13;5079982;27;45458;-70
2022/03/22 04:58:16;;;;;;;;;39.67;34.33;;;;;9.43;64.31;102582.13;5079603;28;45371;-70
2022/03/22 05:00:41;;;;;;;;;35.00;31.33;;;;;9.55;64.05;102607.66;5079680;27;45380;-70
2022/03/22 05:03:08;;;;;;;;;40.33;33.00;;;;;9.64;63.95;102626.16;5079528;27;45498;-70
2022/03/22 05:08:18;;;;;;;;;38.67;34.67;;;;;9.60;64.37;102624.41;5079295;28;45514;-70
2022/03/22 05:10:43;;;;;;;;;44.67;38.33;;;;;9.64;64.50;102636.69;5079601;27;45593;-70
2022/03/22 05:13:09;;;;;;;;;40.00;32.67;;;;;9.50;64.57;102612.00;5078850;27;45384;-70
2022/03/22 05:15:34;;;;;;;;;46.00;34.67;;;;;9.58;64.37;102623.47;5079428;28;45313;-70
2022/03/22 05:18:01;;;;;;;;;37.67;33.00;;;;;9.59;64.30;102628.75;5079362;27;45387;-70
2022/03/22 05:20:28;;;;;;;;;36.33;30.33;;;;;9.55;64.63;102626.94;5079192;27;45423;-69
2022/03/22 05:22:53;;;;;;;;;41.33;33.33;;;;;9.58;64.60;102636.63;5079237;27;46697;-70
2022/03/22 05:25:20;;;;;;;;;39.00;34.00;;;;;9.44;64.76;102619.81;5078853;27;45699;-70
2022/03/22 05:27:45;;;;;;;;;37.67;32.67;;;;;9.51;64.75;102640.94;5079252;27;45339;-70
2022/03/22 05:30:11;;;;;;;;;39.67;32.67;;;;;9.47;64.84;102635.59;5079231;27;45431;-69
2022/03/22 05:32:36;;;;;;;;;37.33;32.67;;;;;9.44;64.14;102644.38;5078794;27;45225;-70
2022/03/22 05:35:02;;;;;;;;;71.33;50.33;;;;;9.45;66.56;102639.97;5079086;28;45355;-70
2022/03/22 05:37:27;;;;;;;;;46.33;38.33;;;;;9.46;66.08;102641.75;5072118;28;45446;-70
2022/03/22 05:39:53;;;;;;;;;43.33;33.67;;;;;9.40;64.66;102640.81;5068740;28;45404;-69
2022/03/22 05:42:18;;;;;;;;;33.00;28.67;;;;;9.46;64.68;102649.63;5060274;28;45558;-69
2022/03/22 05:44:44;;;;;;;;;32.00;31.67;;;;;9.43;64.83;102652.25;5058869;28;45425;-70
2022/03/22 05:47:10;;;;;;;;;37.33;32.33;;;;;9.46;64.38;102652.28;5077425;28;45245;-68
2022/03/22 05:49:36;;;;;;;;;35.33;28.67;;;;;9.42;64.43;102656.59;5079162;27;45624;-69
2022/03/22 05:52:03;;;;;;;;;35.67;32.67;;;;;9.36;64.16;102638.13;5078825;27;45423;-69
2022/03/22 05:54:28;;;;;;;;;33.33;25.33;;;;;9.32;64.17;102637.19;5078664;27;45734;-69
2022/03/22 05:56:54;;;;;;;;;37.67;27.33;;;;;9.33;63.89;102643.34;5079112;28;45415;-69
2022/03/22 05:59:19;;;;;;;;;35.00;30.00;;;;;9.38;64.03;102657.41;5079165;27;45374;-69
2022/03/22 06:01:44;;;;;;;;;42.67;31.67;;;;;9.27;64.02;102633.63;5078279;28;46250;-69
2022/03/22 06:04:13;;;;;;;;;33.33;31.00;;;;;9.49;63.45;102662.81;5078799;28;45675;-69
2022/03/22 06:06:40;;;;;;;;;32.00;26.67;;;;;9.52;63.38;102660.22;5078673;27;45533;-69
2022/03/22 06:09:05;;;;;;;;;30.33;27.33;;;;;9.52;62.76;102657.59;5078909;27;45793;-69
2022/03/22 06:11:35;;;;;;;;;36.00;26.67;;;;;9.42;62.89;102632.94;5078400;27;47243;-69
2022/03/22 06:14:02;;;;;;;;;34.33;26.00;;;;;9.46;62.58;102647.88;5078881;27;45365;-68
2022/03/22 06:16:27;;;;;;;;;25.00;21.00;;;;;9.35;62.28;102620.56;5077687;27;45334;-68
2022/03/22 06:18:52;;;;;;;;;30.67;27.67;;;;;9.58;62.35;102652.41;5078949;27;45195;-69
2022/03/22 06:21:18;;;;;;;;;34.00;25.67;;;;;9.66;61.97;102665.69;5077891;27;46240;-69
2022/03/22 06:23:43;;;;;;;;;37.33;26.33;;;;;9.57;61.99;102650.66;5078436;28;45710;-69
2022/03/22 06:26:09;;;;;;;;;26.33;24.33;;;;;9.69;61.51;102658.69;5078553;27;45483;-69
2022/03/22 06:28:34;;;;;;;;;29.33;25.33;;;;;9.79;61.73;102674.56;5076992;27;45652;-69
2022/03/22 06:30:59;;;;;;;;;26.67;26.00;;;;;9.75;61.72;102658.75;5077252;28;46430;-69
2022/03/22 06:33:25;;;;;;;;;34.67;25.67;;;;;9.85;60.98;102669.41;5077648;28;45261;-69
2022/03/22 06:35:51;;;;;;;;;29.67;25.00;;;;;10.01;61.12;102686.25;5077575;27;45445;-69
2022/03/22 06:38:17;;;;;;;;;28.67;28.33;;;;;10.10;60.66;102681.94;5078523;27;45422;-69
2022/03/22 06:40:42;;;;;;;;;37.00;30.00;;;;;10.20;60.70;102679.41;5077908;27;46436;-69
2022/03/22 06:43:10;;;;;;;;;30.33;26.00;;;;;10.25;60.05;102678.59;5078208;28;45429;-69
2022/03/22 06:45:37;;;;;;;;;31.33;27.00;;;;;10.33;60.68;102689.19;5077910;28;45365;-68
2022/03/22 06:48:03;;;;;;;;;32.67;28.33;;;;;10.31;60.40;102676.88;5077440;27;45534;-69
2022/03/22 06:50:28;;;;;;;;;29.00;24.33;;;;;10.27;60.08;102649.66;5077302;27;45432;-68
2022/03/22 06:52:54;;;;;;;;;32.00;24.00;;;;;10.58;59.28;102679.78;5077713;28;45444;-68
2022/03/22 06:55:22;;;;;;;;;27.67;25.00;;;;;10.71;58.71;102687.81;5078139;27;45560;-69
2022/03/22 06:57:53;;;;;;;;;32.00;27.67;;;;;10.56;58.99;102643.78;5077820;27;45425;-69
2022/03/22 07:00:20;;;;;;;;;37.00;31.67;;;;;10.75;57.44;102677.28;5077584;27;45463;-71
2022/03/22 07:02:47;;;;;;;;;35.67;30.00;;;;;10.77;57.92;102674.66;5077406;27;45410;-69
2022/03/22 07:05:13;;;;;;;;;26.33;25.33;;;;;10.96;58.20;102699.41;5076458;28;45445;-69
2022/03/22 07:07:39;;;;;;;;;34.67;26.67;;;;;11.04;58.13;102691.56;5077746;27;45565;-69
2022/03/22 07:10:09;;;;;;;;;28.00;26.33;;;;;11.20;57.83;102680.22;5076114;27;47038;-69
2022/03/22 07:12:36;;;;;;;;;34.00;28.00;;;;;11.39;56.52;102675.94;5076667;27;45462;-69
2022/03/22 07:15:03;;;;;;;;;32.67;31.00;;;;;11.71;56.13;102706.88;5077523;27;45431;-70
2022/03/22 07:17:29;;;;;;;;;36.00;32.33;;;;;11.81;55.92;102710.44;5061102;28;45578;-70
2022/03/22 07:19:54;;;;;;;;;33.33;29.33;;;;;11.70;55.44;102689.25;5077006;27;46495;-70
2022/03/22 07:22:20;;;;;;;;;29.00;27.33;;;;;11.88;54.69;102708.69;5077063;27;45374;-71
2022/03/22 07:24:45;;;;;;;;;36.67;31.00;;;;;11.89;55.38;102702.53;5076065;28;45443;-70
2022/03/22 07:27:11;;;;;;;;;63.25;50.50;;;;;11.91;55.26;102695.47;5076383;27;45425;-71
2022/03/22 07:29:36;;;;;;;;;56.67;45.67;;;;;12.14;54.53;102707.03;5056414;28;46350;-70
2022/03/22 07:32:02;;;;;;;;;38.67;34.00;;;;;12.32;54.37;102695.63;5056772;28;45900;-70
2022/03/22 07:34:28;;;;;;;;;44.33;34.00;;;;;12.47;53.75;102700.03;5056776;28;45253;-71
2022/03/22 07:36:54;;;;;;;;;36.33;31.33;;;;;12.62;53.11;102703.56;5056798;28;45352;-71
2022/03/22 07:39:21;;;;;;;;;43.00;34.33;;;;;12.65;52.21;102708.84;5062379;28;46617;-71
2022/03/22 07:41:48;;;;;;;;;37.67;33.00;;;;;12.70;52.88;102712.38;5076981;27;45355;-71
2022/03/22 07:44:14;;;;;;;;;35.00;30.67;;;;;12.65;52.72;102691.25;5077067;28;45371;-72
2022/03/22 07:46:40;;;;;;;;;36.33;31.00;;;;;12.72;52.22;102689.47;5077437;28;45250;-71
2022/03/22 07:54:33;;;;;;;;;37.00;30.33;;;;;13.03;52.28;102700.91;5076942;28;45529;-72
2022/03/22 07:56:58;;;;;;;;;38.33;34.00;;;;;13.01;51.64;102670.03;5077162;27;45405;-72
2022/03/22 07:59:25;;;;;;;;;34.67;32.67;;;;;13.18;52.38;102676.19;5076945;28;46264;-72
2022/03/22 08:01:51;;;;;;;;;36.33;30.67;;;;;13.54;52.06;102729.91;5076791;27;45312;-72
2022/03/22 08:04:17;;;;;;;;;31.00;28.00;;;;;13.59;51.71;102700.78;5076995;27;45234;-72
2022/03/22 08:06:43;;;;;;;;;41.67;34.00;;;;;13.89;50.10;102723.59;5077066;27;45225;-70
2022/03/22 08:09:08;;;;;;;;;36.00;30.67;;;;;14.10;49.73;102724.38;5076853;28;45501;-72
2022/03/22 08:11:34;;;;;;;;;44.67;33.33;;;;;14.54;48.88;102717.91;5076123;27;45415;-71
2022/03/22 08:14:00;;;;;;;;;38.67;32.00;;;;;15.36;47.97;102714.50;5077122;27;45609;-71
2022/03/22 08:16:29;;;;;;;;;42.00;33.00;;;;;15.91;46.88;102705.03;5076814;27;45574;-72
2022/03/22 08:18:55;;;;;;;;;41.00;33.00;;;;;16.30;45.19;102715.13;5076265;27;46500;-76
2022/03/22 08:21:20;;;;;;;;;33.00;30.00;;;;;16.41;44.96;102714.94;5075901;27;45478;-74
2022/03/22 08:23:46;;;;;;;;;43.00;35.67;;;;;16.29;45.08;102716.88;5080574;27;45437;-71
2022/03/22 08:26:13;;;;;;;;;40.33;33.33;;;;;16.04;45.71;102705.72;5080598;27;45212;-70
2022/03/22 08:28:39;;;;;;;;;36.00;31.33;;;;;16.09;45.21;102714.53;5079956;27;47272;-70
2022/03/22 08:31:05;;;;;;;;;44.00;31.67;;;;;16.76;45.70;102718.81;5079790;27;45680;-70
2022/03/22 08:33:30;;;;;;;;;37.67;33.00;;;;;17.23;43.45;102717.97;5080089;28;45660;-70
2022/03/22 08:35:55;;;;;;;;;42.33;32.67;;;;;17.42;43.68;102722.94;5080549;27;45310;-70
2022/03/22 08:38:23;;;;;;;;;35.33;30.33;;;;;17.52;43.96;102721.84;5079917;28;46184;-70
2022/03/22 08:40:49;;;;;;;;;31.67;30.00;;;;;17.89;42.22;102731.75;5079678;27;45321;-71
2022/03/22 08:43:15;;;;;;;;;32.33;28.33;;;;;18.17;42.93;102716.97;5079514;27;45486;-70
2022/03/22 08:45:40;;;;;;;;;39.67;30.67;;;;;18.22;40.44;102723.94;5079722;27;45373;-70
2022/03/22 08:48:10;;;;;;;;;34.00;31.50;;;;;18.77;40.91;102726.19;5079125;27;46377;-70
2022/03/22 08:50:37;;;;;;;;;29.67;25.67;;;;;19.65;39.28;102699.78;5078384;28;45548;-70
2022/03/22 08:53:03;;;;;;;;;35.00;29.33;;;;;19.72;38.73;102724.50;5079691;27;45437;-69
2022/03/22 08:55:29;;;;;;;;;33.33;26.33;;;;;19.57;38.04;102726.69;5079853;27;45389;-71
2022/03/22 08:57:55;;;;;;;;;31.33;28.00;;;;;19.69;38.08;102728.13;5079689;27;46862;-71
2022/03/22 09:00:21;;;;;;;;;32.67;24.67;;;;;19.70;40.71;102716.53;5079839;27;45305;-71
2022/03/22 09:02:49;;;;;;;;;33.67;27.67;;;;;19.49;39.28;102729.59;5079329;27;45370;-71
2022/03/22 09:08:01;;;;;;;;;32.33;28.67;;;;;19.55;38.20;102725.03;5079028;28;45711;-72
2022/03/22 09:10:30;;;;;;;;;38.00;31.00;;;;;19.72;37.71;102701.34;5079397;27;45455;-70
2022/03/22 09:12:56;;;;;;;;;35.33;31.33;;;;;20.60;38.58;102725.34;5079553;27;45375;-70
2022/03/22 09:15:26;;;;;;;;;33.33;29.00;;;;;20.98;35.57;102730.34;5079609;27;45261;-69
2022/03/22 09:17:52;;;;;;;;;35.00;28.67;;;;;20.75;36.91;102729.31;5079342;27;46221;-70
2022/03/22 09:20:19;;;;;;;;;36.33;29.33;;;;;20.39;36.81;102734.97;5078667;28;45553;-69
2022/03/22 09:22:48;;;;;;;;;36.33;29.33;;;;;19.93;37.74;102710.53;5079137;27;45362;-70
2022/03/22 09:25:14;;;;;;;;;35.00;31.00;;;;;20.02;39.03;102728.09;5079438;27;45456;-70
2022/03/22 09:27:43;;;;;;;;;31.00;26.00;;;;;20.24;36.39;102689.97;5078894;27;45430;-70
2022/03/22 09:30:10;;;;;;;;;38.00;31.67;;;;;20.51;36.51;102718.50;5078180;27;45751;-70
2022/03/22 09:32:37;;;;;;;;;33.33;29.00;;;;;20.35;37.61;102726.16;5076825;28;45480;-70
2022/03/22 09:35:06;;;;;;;;;40.67;32.33;;;;;20.26;36.96;102725.56;5079286;27;45383;-71
2022/03/22 09:37:35;;;;;;;;;37.67;30.33;;;;;20.73;37.38;102720.47;5078731;27;47592;-71
2022/03/22 09:40:01;;;;;;;;;33.33;29.00;;;;;21.08;35.78;102707.66;5078847;27;45460;-71
2022/03/22 09:42:27;;;;;;;;;34.00;29.67;;;;;21.47;36.23;102714.31;5078866;28;45443;-71
2022/03/22 09:44:53;;;;;;;;;38.00;31.67;;;;;21.81;35.20;102719.28;5079224;28;45506;-71
2022/03/22 09:47:19;;;;;;;;;33.00;29.00;;;;;22.23;35.29;102723.00;5078777;27;45367;-71
2022/03/22 09:49:45;;;;;;;;;37.33;30.67;;;;;23.39;33.44;102716.31;5078911;27;45416;-71
2022/03/22 09:52:12;;;;;;;;;36.33;30.67;;;;;24.12;32.16;102718.31;5078208;27;45617;-71
2022/03/22 09:54:39;;;;;;;;;32.00;28.33;;;;;24.33;30.64;102706.50;5078324;27;45424;-72
2022/03/22 09:57:05;;;;;;;;;28.00;23.33;;;;;24.66;30.19;102719.25;5078150;27;45432;-71
2022/03/22 09:59:35;;;;;;;;;33.67;29.33;;;;;24.69;31.46;102715.53;5077793;28;45419;-72
2022/03/22 10:02:01;;;;;;;;;37.00;31.33;;;;;24.98;31.46;102722.09;5078033;27;45419;-73
2022/03/22 10:04:39;;;;;;;;;40.33;29.67;;;;;25.49;29.63;102724.81;5078234;27;45393;-72
2022/03/22 10:07:06;;;;;;;;;33.00;30.67;;;;;25.74;30.45;102728.84;5077715;27;45526;-72
2022/03/22 10:09:37;;;;;;;;;38.00;28.33;;;;;25.99;29.66;102724.78;5077868;27;45404;-72
2022/03/22 10:12:04;;;;;;;;;32.00;28.00;;;;;25.97;28.99;102721.31;5078016;27;45460;-72
2022/03/22 10:14:39;;;;;;;;;37.00;31.00;;;;;25.92;31.04;102732.34;5077976;27;45466;-73
2022/03/22 10:17:17;;;;;;;;;39.67;33.00;;;;;26.38;29.07;102721.63;5077820;27;45445;-72
2022/03/22 10:19:49;;;;;;;;;34.00;29.33;;;;;27.26;28.98;102715.50;5077753;27;45376;-71
2022/03/22 10:22:15;;;;;;;;;41.67;30.67;;;;;27.84;26.89;102707.34;5077496;27;45422;-71
2022/03/22 10:24:52;;;;;;;;;31.00;26.67;;;;;28.48;26.90;102713.94;5077719;27;45474;-71
2022/03/22 10:27:36;;;;;;;;;27.00;24.33;;;;;29.06;26.97;102716.34;5077573;27;47444;-71
2022/03/22 10:30:08;;;;;;;;;32.00;29.00;;;;;29.24;24.27;102713.34;5077679;27;45470;-71
2022/03/22 10:32:36;;;;;;;;;33.67;30.33;;;;;29.23;24.44;102712.44;5077554;27;45457;-71
2022/03/22 10:35:10;;;;;;;;;28.33;25.33;;;;;29.31;26.67;102715.47;5077704;28;45402;-71
2022/03/22 10:37:37;;;;;;;;;31.00;27.67;;;;;29.16;25.90;102716.53;5077396;27;46253;-71
2022/03/22 10:40:18;;;;;;;;;37.00;31.67;;;;;28.92;24.92;102705.59;5077400;27;45443;-71
2022/03/22 10:42:44;;;;;;;;;25.33;23.67;;;;;28.40;25.61;102701.88;5077539;27;45511;-72
2022/03/22 10:45:09;;;;;;;;;34.33;29.00;;;;;27.94;25.25;102701.25;5076525;28;45474;-72
2022/03/22 10:47:35;;;;;;;;;31.00;27.00;;;;;27.48;25.93;102698.81;5076859;28;46591;-72
2022/03/22 10:50:05;;;;;;;;;30.33;25.00;;;;;26.87;26.90;102700.78;5077195;27;45447;-72
2022/03/22 10:52:31;;;;;;;;;35.00;28.67;;;;;26.35;27.29;102708.31;5077446;27;45727;-72
2022/03/22 10:54:56;;;;;;;;;29.00;26.67;;;;;25.96;27.36;102695.25;5077311;28;45492;-72
2022/03/22 10:57:32;;;;;;;;;28.67;27.00;;;;;25.58;28.23;102707.25;5077219;27;46247;-72
2022/03/22 11:00:01;;;;;;;;;28.33;27.33;;;;;25.07;28.42;102680.31;5077007;27;45518;-72
2022/03/22 11:02:29;;;;;;;;;28.67;26.67;;;;;24.81;28.73;102693.31;5076816;27;45510;-72
2022/03/22 11:04:56;;;;;;;;;27.67;25.67;;;;;24.58;28.57;102699.00;5077256;27;45792;-72
2022/03/22 11:07:24;;;;;;;;;26.67;25.00;;;;;24.31;29.07;102694.94;5076824;27;45962;-71
2022/03/22 11:09:51;;;;;;;;;18.67;14.00;;;;;23.95;29.11;102695.81;5077061;27;45592;-71
2022/03/22 11:12:18;;;;;;;;;27.33;21.33;;;;;23.57;29.98;102695.78;5076834;27;45421;-71
2022/03/22 11:14:45;;;;;;;;;26.00;26.00;;;;;23.30;29.99;102682.66;5077427;27;45378;-72
2022/03/22 11:17:12;;;;;;;;;25.67;23.67;;;;;23.12;30.44;102680.81;5076008;27;45474;-72
2022/03/22 11:19:38;;;;;;;;;28.67;25.33;;;;;22.87;30.82;102678.31;5074734;28;45477;-72
2022/03/22 11:22:08;;;;;;;;;28.67;26.67;;;;;22.41;30.93;102675.81;5076293;27;45374;-70
2022/03/22 11:24:37;;;;;;;;;33.33;28.33;;;;;22.07;31.31;102693.25;5076871;27;45574;-72
2022/03/22 11:27:07;;;;;;;;;29.67;28.00;;;;;21.82;32.14;102682.63;5076784;27;45447;-71
2022/03/22 11:29:32;;;;;;;;;24.33;23.00;;;;;21.52;32.55;102681.06;5076826;27;45394;-71
2022/03/22 11:34:43;;;;;;;;;29.00;22.67;;;;;21.07;33.31;102665.72;5077257;28;45562;-71
2022/03/22 11:37:09;;;;;;;;;26.33;22.33;;;;;21.02;32.85;102681.09;5076224;27;47378;-71
2022/03/22 11:42:50;;;;;;;;;32.67;26.33;;;;;20.66;33.18;102673.41;4993954;28;45506;-70
2022/03/22 11:45:16;;;;;;;;;25.33;23.67;;;;;20.47;33.41;102670.47;4994849;28;45801;-71
2022/03/22 11:47:43;;;;;;;;;27.67;25.00;;;;;20.51;33.95;102674.81;4993628;28;46610;-71
2022/03/22 11:50:13;;;;;;;;;26.67;23.00;;;;;20.46;34.33;102664.25;4993541;28;45575;-71